createdAt,value
2018-05-24T00:02:19.459Z,101250
2018-05-24T00:04:47.567Z,101248
2018-05-24T00:07:15.634Z,101254
2018-05-24T00:09:44.220Z,101247
2018-05-24T00:12:12.344Z,101245
2018-05-24T00:14:40.626Z,101239
2018-05-24T00:17:09.885Z,101243
2018-05-24T00:19:38.172Z,101252
2018-05-24T00:22:06.331Z,101251
2018-05-24T00:24:34.470Z,101243
2018-05-24T00:27:02.577Z,101249
2018-05-24T00:29:31.345Z,101237
2018-05-24T00:31:59.431Z,101239
2018-05-24T00:34:28.172Z,101245
2018-05-24T00:36:57.016Z,101234
2018-05-24T00:39:32.715Z,101233
2018-05-24T00:47:09.528Z,101231
2018-05-24T00:49:39.092Z,101227
2018-05-24T00:52:08.428Z,101228
2018-05-24T00:54:37.997Z,101223
2018-05-24T00:57:06.155Z,101228
2018-05-24T00:59:34.415Z,101216
2018-05-24T01:02:02.500Z,101218
2018-05-24T01:04:30.667Z,101205
2018-05-24T01:06:59.154Z,101214
2018-05-24T01:14:35.073Z,101205
2018-05-24T01:17:03.382Z,101206
2018-05-24T01:19:32.268Z,101197
2018-05-24T01:22:01.411Z,101214
2018-05-24T01:24:29.507Z,101195
2018-05-24T01:26:58.630Z,101197
2018-05-24T01:29:26.896Z,101197
2018-05-24T01:31:55.955Z,101197
2018-05-24T01:34:24.101Z,101206
2018-05-24T01:37:10.239Z,101197
2018-05-24T01:39:38.427Z,101191
2018-05-24T01:42:06.572Z,101198
2018-05-24T01:44:38.309Z,101196
2018-05-24T01:47:06.649Z,101190
2018-05-24T01:49:34.808Z,101197
2018-05-24T01:52:02.880Z,101194
2018-05-24T01:54:31.155Z,101186
2018-05-24T01:56:59.334Z,101184
2018-05-24T01:59:28.086Z,101185
2018-05-24T02:01:56.880Z,101186
2018-05-24T02:04:25.683Z,101187
2018-05-24T02:06:53.795Z,101183
2018-05-24T02:09:23.539Z,101187
2018-05-24T02:11:51.706Z,101179
2018-05-24T02:14:19.782Z,101186
2018-05-24T02:16:48.076Z,101178
2018-05-24T02:19:16.832Z,101175
2018-05-24T02:21:45.886Z,101175
2018-05-24T02:24:14.943Z,101177
2018-05-24T02:26:43.364Z,101175
2018-05-24T02:29:11.555Z,101172
2018-05-24T02:31:39.916Z,101154
2018-05-24T02:34:08.076Z,101161
2018-05-24T02:36:37.045Z,101170
2018-05-24T02:39:06.324Z,101167
2018-05-24T02:41:34.617Z,101170
2018-05-24T02:44:02.843Z,101172
2018-05-24T02:46:31.104Z,101164
2018-05-24T02:49:00.198Z,101167
2018-05-24T02:51:28.595Z,101166
2018-05-24T02:53:57.459Z,101174
2018-05-24T02:56:25.699Z,101167
2018-05-24T02:58:54.048Z,101174
2018-05-24T03:01:22.215Z,101174
2018-05-24T03:03:50.281Z,101172
2018-05-24T03:06:18.584Z,101170
2018-05-24T03:08:47.858Z,101165
2018-05-24T03:11:16.007Z,101167
2018-05-24T03:13:45.120Z,101172
2018-05-24T03:16:13.353Z,101169
2018-05-24T03:18:41.513Z,101161
2018-05-24T03:21:09.832Z,101165
2018-05-24T03:23:38.032Z,101165
2018-05-24T03:26:06.113Z,101163
2018-05-24T03:28:34.449Z,101164
2018-05-24T03:31:02.760Z,101170
2018-05-24T03:33:31.156Z,101171
2018-05-24T03:36:00.362Z,101172
2018-05-24T03:38:28.651Z,101166
2018-05-24T03:40:56.754Z,101165
2018-05-24T03:43:24.836Z,101164
2018-05-24T03:45:52.936Z,101163
2018-05-24T03:48:21.052Z,101168
2018-05-24T03:50:50.754Z,101171
2018-05-24T03:53:19.515Z,101170
2018-05-24T03:55:47.596Z,101170
2018-05-24T03:58:15.829Z,101164
2018-05-24T04:01:01.821Z,101165
2018-05-24T04:03:46.559Z,101174
2018-05-24T04:06:15.610Z,101168
2018-05-24T04:08:44.568Z,101170
2018-05-24T04:11:14.568Z,101166
2018-05-24T04:13:43.108Z,101176
2018-05-24T04:16:12.220Z,101180
2018-05-24T04:18:40.827Z,101171
2018-05-24T04:21:09.662Z,101177
2018-05-24T04:23:37.967Z,101179
2018-05-24T04:26:06.136Z,101183
2018-05-24T04:28:34.989Z,101190
2018-05-24T04:31:03.371Z,101189
2018-05-24T04:33:31.612Z,101201
2018-05-24T04:36:01.120Z,101205
2018-05-24T04:38:29.627Z,101198
2018-05-24T04:40:58.386Z,101204
2018-05-24T04:43:27.034Z,101199
2018-05-24T04:45:55.999Z,101188
2018-05-24T04:48:24.085Z,101195
2018-05-24T04:50:52.173Z,101193
2018-05-24T04:53:21.033Z,101204
2018-05-24T04:55:49.152Z,101200
2018-05-24T04:58:17.248Z,101202
2018-05-24T05:00:45.453Z,101201
2018-05-24T05:03:13.689Z,101204
2018-05-24T05:05:41.965Z,101198
2018-05-24T05:08:10.212Z,101207
2018-05-24T05:10:39.990Z,101208
2018-05-24T05:13:08.880Z,101210
2018-05-24T05:15:37.061Z,101201
2018-05-24T05:18:05.737Z,101204
2018-05-24T05:20:34.262Z,101206
2018-05-24T05:23:04.118Z,101210
2018-05-24T05:25:32.970Z,101214
2018-05-24T05:28:01.852Z,101211
2018-05-24T05:30:29.990Z,101208
2018-05-24T05:32:58.292Z,101212
2018-05-24T05:35:28.176Z,101214
2018-05-24T05:37:56.429Z,101202
2018-05-24T05:40:24.677Z,101210
2018-05-24T05:42:52.932Z,101212
2018-05-24T05:45:21.134Z,101216
2018-05-24T05:47:49.240Z,101221
2018-05-24T05:50:18.044Z,101213
2018-05-24T05:52:46.459Z,101205
2018-05-24T05:55:16.372Z,101199
2018-05-24T05:57:44.482Z,101201
2018-05-24T06:00:13.023Z,101202
2018-05-24T06:02:41.191Z,101195
2018-05-24T06:05:09.272Z,101189
2018-05-24T06:07:38.144Z,101187
2018-05-24T06:10:06.636Z,101190
2018-05-24T06:12:35.679Z,101189
2018-05-24T06:15:03.776Z,101197
2018-05-24T06:17:32.518Z,101191
2018-05-24T06:20:00.733Z,101199
2018-05-24T06:22:30.342Z,101189
2018-05-24T06:24:59.003Z,101191
2018-05-24T06:27:27.073Z,101186
2018-05-24T06:29:55.161Z,101190
2018-05-24T06:32:24.965Z,101195
2018-05-24T06:34:53.305Z,101185
2018-05-24T06:37:22.192Z,101183
2018-05-24T06:39:50.300Z,101193
2018-05-24T06:42:19.320Z,101188
2018-05-24T06:44:47.403Z,101187
2018-05-24T06:47:15.800Z,101186
2018-05-24T06:49:43.986Z,101194
2018-05-24T06:52:13.794Z,101185
2018-05-24T06:54:41.892Z,101194
2018-05-24T06:57:10.913Z,101195
2018-05-24T06:59:38.988Z,101193
2018-05-24T07:02:07.101Z,101203
2018-05-24T07:04:36.235Z,101204
2018-05-24T07:07:05.096Z,101208
2018-05-24T07:09:33.872Z,101206
2018-05-24T07:12:03.359Z,101214
2018-05-24T07:14:31.553Z,101203
2018-05-24T07:16:59.884Z,101209
2018-05-24T07:19:28.184Z,101214
2018-05-24T07:21:56.275Z,101209
2018-05-24T07:24:24.591Z,101208
2018-05-24T07:26:53.025Z,101203
2018-05-24T07:29:21.871Z,101216
2018-05-24T07:31:50.001Z,101211
2018-05-24T07:34:18.098Z,101210
2018-05-24T07:36:46.324Z,101214
2018-05-24T07:39:14.719Z,101209
2018-05-24T07:41:43.508Z,101203
2018-05-24T07:44:12.384Z,101204
2018-05-24T07:46:40.793Z,101212
2018-05-24T07:49:09.645Z,101211
2018-05-24T07:51:38.193Z,101200
2018-05-24T07:54:06.613Z,101210
2018-05-24T07:56:35.616Z,101202
2018-05-24T07:59:03.700Z,101203
2018-05-24T08:01:32.310Z,101199
2018-05-24T08:04:00.631Z,101192
2018-05-24T08:06:31.740Z,101190
2018-05-24T08:09:00.105Z,101195
2018-05-24T08:11:30.250Z,101203
2018-05-24T08:13:58.378Z,101208
2018-05-24T08:16:26.908Z,101191
2018-05-24T08:18:58.494Z,101182
2018-05-24T08:21:26.736Z,101180
2018-05-24T08:23:55.031Z,101179
2018-05-24T08:26:24.268Z,101181
2018-05-24T08:28:52.529Z,101190
2018-05-24T08:31:20.792Z,101181
2018-05-24T08:33:49.197Z,101178
2018-05-24T08:36:17.371Z,101195
2018-05-24T08:38:45.965Z,101188
2018-05-24T08:41:14.953Z,101177
2018-05-24T08:43:43.405Z,101173
2018-05-24T08:46:12.276Z,101173
2018-05-24T08:48:40.684Z,101168
2018-05-24T08:51:08.766Z,101177
2018-05-24T08:53:46.156Z,101181
2018-05-24T08:56:14.595Z,101170
2018-05-24T08:58:42.705Z,101175
2018-05-24T09:01:12.529Z,101168
2018-05-24T09:03:41.351Z,101168
2018-05-24T09:06:10.182Z,101173
2018-05-24T09:08:38.268Z,101176
2018-05-24T09:11:06.368Z,101183
2018-05-24T09:13:35.473Z,101178
2018-05-24T09:16:03.677Z,101184
2018-05-24T09:18:32.130Z,101183
2018-05-24T09:21:01.149Z,101181
2018-05-24T09:23:29.880Z,101180
2018-05-24T09:25:58.167Z,101186
2018-05-24T09:28:26.884Z,101182
2018-05-24T09:30:56.132Z,101167
2018-05-24T09:33:25.100Z,101172
2018-05-24T09:35:53.160Z,101176
2018-05-24T09:38:21.292Z,101171
2018-05-24T09:40:49.668Z,101167
2018-05-24T09:43:18.519Z,101168
2018-05-24T09:45:47.640Z,101169
2018-05-24T09:48:15.904Z,101171
2018-05-24T09:50:45.276Z,101168
2018-05-24T09:53:13.627Z,101174
2018-05-24T09:55:42.575Z,101176
2018-05-24T09:58:11.443Z,101174
2018-05-24T10:00:40.464Z,101164
2018-05-24T10:03:09.569Z,101164
2018-05-24T10:05:38.476Z,101171
2018-05-24T10:08:06.911Z,101164
2018-05-24T10:10:35.847Z,101154
2018-05-24T10:13:04.755Z,101165
2018-05-24T10:15:33.589Z,101162
2018-05-24T10:18:01.829Z,101160
2018-05-24T10:20:30.360Z,101164
2018-05-24T10:22:58.551Z,101160
2018-05-24T10:25:28.211Z,101158
2018-05-24T10:27:56.729Z,101156
2018-05-24T10:30:25.079Z,101157
2018-05-24T10:32:53.637Z,101161
2018-05-24T10:35:22.565Z,101147
2018-05-24T10:37:51.488Z,101153
2018-05-24T10:40:20.474Z,101152
2018-05-24T10:42:48.996Z,101154
2018-05-24T10:45:18.401Z,101145
2018-05-24T10:47:47.211Z,101149
2018-05-24T10:50:16.445Z,101143
2018-05-24T10:52:46.344Z,101142
2018-05-24T10:55:14.646Z,101139
2018-05-24T10:57:43.894Z,101136
2018-05-24T11:00:12.289Z,101128
2018-05-24T11:02:40.376Z,101133
2018-05-24T11:05:08.592Z,101123
2018-05-24T11:07:37.479Z,101123
2018-05-24T11:10:06.349Z,101128
2018-05-24T11:12:34.743Z,101131
2018-05-24T11:15:03.610Z,101128
2018-05-24T11:17:31.778Z,101126
2018-05-24T11:20:00.049Z,101124
2018-05-24T11:22:28.375Z,101123
2018-05-24T11:24:56.728Z,101114
2018-05-24T11:27:24.894Z,101122
2018-05-24T11:29:53.857Z,101118
2018-05-24T11:32:23.372Z,101108
2018-05-24T11:34:52.250Z,101107
2018-05-24T11:37:20.702Z,101107
2018-05-24T11:39:48.903Z,101108
2018-05-24T11:42:17.269Z,101104
2018-05-24T11:44:46.293Z,101114
2018-05-24T11:47:14.379Z,101108
2018-05-24T11:49:42.475Z,101105
2018-05-24T11:52:11.233Z,101111
2018-05-24T11:54:39.508Z,101095
2018-05-24T11:57:07.725Z,101091
2018-05-24T11:59:35.976Z,101087
2018-05-24T12:02:04.266Z,101086
2018-05-24T12:04:32.735Z,101082
2018-05-24T12:07:01.568Z,101085
2018-05-24T12:09:29.679Z,101075
2018-05-24T12:11:57.933Z,101069
2018-05-24T12:14:26.015Z,101076
2018-05-24T12:16:54.131Z,101070
2018-05-24T12:19:22.480Z,101066
2018-05-24T12:21:50.570Z,101070
2018-05-24T12:24:18.736Z,101061
2018-05-24T12:26:46.791Z,101060
2018-05-24T12:29:15.142Z,101055
2018-05-24T12:31:43.255Z,101052
2018-05-24T12:34:11.508Z,101044
2018-05-24T12:36:39.797Z,101046
2018-05-24T12:39:07.891Z,101050
2018-05-24T12:41:36.087Z,101039
2018-05-24T12:44:04.477Z,101045
2018-05-24T12:46:32.574Z,101043
2018-05-24T12:49:00.716Z,101039
2018-05-24T12:51:28.771Z,101035
2018-05-24T12:53:56.840Z,101034
2018-05-24T12:56:24.985Z,101034
2018-05-24T12:58:53.088Z,101028
2018-05-24T13:01:22.233Z,101028
2018-05-24T13:03:50.546Z,101035
2018-05-24T13:06:18.620Z,101028
2018-05-24T13:08:46.988Z,101025
2018-05-24T13:11:15.284Z,101024
2018-05-24T13:13:43.848Z,101026
2018-05-24T13:16:11.980Z,101018
2018-05-24T13:18:41.340Z,101018
2018-05-24T13:21:09.602Z,101005
2018-05-24T13:23:38.772Z,101006
2018-05-24T13:26:07.134Z,101006
2018-05-24T13:28:35.437Z,101008
2018-05-24T13:31:03.791Z,101003
2018-05-24T13:33:32.171Z,100998
2018-05-24T13:36:00.273Z,100989
2018-05-24T13:38:29.285Z,101001
2018-05-24T13:40:58.076Z,100996
2018-05-24T13:43:26.202Z,100994
2018-05-24T13:45:54.866Z,100995
2018-05-24T13:48:23.155Z,100983
2018-05-24T13:50:51.247Z,100982
2018-05-24T13:53:19.621Z,100989
2018-05-24T13:55:47.888Z,100985
2018-05-24T13:58:17.328Z,100984
2018-05-24T14:00:45.752Z,100982
2018-05-24T14:03:14.838Z,100980
2018-05-24T14:05:43.476Z,100978
2018-05-24T14:08:12.264Z,100984
2018-05-24T14:10:41.192Z,100975
2018-05-24T14:13:09.307Z,100967
2018-05-24T14:15:37.424Z,100962
2018-05-24T14:18:05.915Z,100974
2018-05-24T14:20:34.415Z,100963
2018-05-24T14:23:02.624Z,100973
2018-05-24T14:25:31.628Z,100961
2018-05-24T14:28:00.637Z,100942
2018-05-24T14:30:29.623Z,100953
2018-05-24T14:32:58.746Z,100951
2018-05-24T14:35:27.930Z,100955
2018-05-24T14:37:56.009Z,100954
2018-05-24T14:40:24.236Z,100951
2018-05-24T14:42:52.658Z,100964
2018-05-24T14:45:21.487Z,100964
2018-05-24T14:47:58.334Z,100966
2018-05-24T14:50:27.221Z,100972
2018-05-24T14:52:55.498Z,100978
2018-05-24T14:55:27.124Z,100974
2018-05-24T14:57:57.139Z,100980
2018-05-24T15:00:25.300Z,100976
2018-05-24T15:02:53.797Z,100977
2018-05-24T15:05:22.620Z,100978
2018-05-24T15:07:51.087Z,100979
2018-05-24T15:10:19.220Z,100981
2018-05-24T15:12:50.281Z,100978
2018-05-24T15:15:18.405Z,100986
2018-05-24T15:17:46.791Z,100987
2018-05-24T15:20:15.816Z,100983
2018-05-24T15:22:44.941Z,100975
2018-05-24T15:25:13.380Z,100975
2018-05-24T15:27:41.463Z,100973
2018-05-24T15:30:10.471Z,100970
2018-05-24T15:32:38.770Z,100966
2018-05-24T15:35:06.941Z,100961
2018-05-24T15:37:35.357Z,100964
2018-05-24T15:40:06.026Z,100954
2018-05-24T15:42:34.432Z,100958
2018-05-24T15:45:02.731Z,100946
2018-05-24T15:47:31.034Z,100946
2018-05-24T15:49:59.112Z,100951
2018-05-24T15:52:27.286Z,100952
2018-05-24T15:54:56.145Z,100945
2018-05-24T15:57:25.007Z,100949
2018-05-24T15:59:53.909Z,100947
2018-05-24T16:02:22.537Z,100943
2018-05-24T16:04:51.360Z,100942
2018-05-24T16:07:20.198Z,100956
2018-05-24T16:09:49.660Z,100945
2018-05-24T16:12:19.877Z,100941
2018-05-24T16:14:48.388Z,100938
2018-05-24T16:17:18.169Z,100940
2018-05-24T16:19:46.331Z,100938
2018-05-24T16:22:14.414Z,100937
2018-05-24T16:24:43.206Z,100924
2018-05-24T16:27:12.895Z,100925
2018-05-24T16:29:41.837Z,100926
2018-05-24T16:32:10.040Z,100929
2018-05-24T16:34:39.124Z,100930
2018-05-24T16:37:07.609Z,100924
2018-05-24T16:39:36.265Z,100924
2018-05-24T16:42:04.536Z,100923
2018-05-24T16:44:32.648Z,100927
2018-05-24T16:47:00.732Z,100936
2018-05-24T16:49:30.050Z,100935
2018-05-24T16:52:00.049Z,100932
2018-05-24T16:54:28.217Z,100934
2018-05-24T16:56:56.573Z,100928
2018-05-24T16:59:24.665Z,100929
2018-05-24T17:01:53.792Z,100946
2018-05-24T17:04:21.888Z,100935
2018-05-24T17:06:50.487Z,100935
2018-05-24T17:09:21.635Z,100940
2018-05-24T17:11:49.743Z,100938
2018-05-24T17:14:17.931Z,100938
2018-05-24T17:16:46.309Z,100931
2018-05-24T17:19:14.497Z,100931
2018-05-24T17:21:42.603Z,100942
2018-05-24T17:24:10.891Z,100934
2018-05-24T17:26:38.987Z,100935
2018-05-24T17:29:09.249Z,100945
2018-05-24T17:31:38.113Z,100942
2018-05-24T17:34:07.847Z,100942
2018-05-24T17:36:35.923Z,100942
2018-05-24T17:39:04.005Z,100946
2018-05-24T17:41:32.372Z,100934
2018-05-24T17:44:00.873Z,100939
2018-05-24T17:46:29.628Z,100935
2018-05-24T17:48:57.719Z,100941
2018-05-24T17:51:26.085Z,100948
2018-05-24T17:53:54.520Z,100946
2018-05-24T17:56:23.230Z,100953
2018-05-24T17:58:52.141Z,100951
2018-05-24T18:01:20.427Z,100948
2018-05-24T18:03:49.332Z,100952
2018-05-24T18:06:18.084Z,100956
2018-05-24T18:08:46.452Z,100960
2018-05-24T18:11:15.284Z,100964
2018-05-24T18:13:44.164Z,100969
2018-05-24T18:16:12.519Z,100967
2018-05-24T18:18:40.944Z,100961
2018-05-24T18:21:09.428Z,100963
2018-05-24T18:23:37.833Z,100975
2018-05-24T18:26:06.361Z,100974
2018-05-24T18:28:35.364Z,100971
2018-05-24T18:31:03.645Z,100974
2018-05-24T18:33:32.114Z,100975
2018-05-24T18:36:00.218Z,100985
2018-05-24T18:38:28.386Z,100985
2018-05-24T18:40:56.498Z,100984
2018-05-24T18:43:24.611Z,100979
2018-05-24T18:45:52.813Z,100989
2018-05-24T18:48:21.149Z,100994
2018-05-24T18:50:50.122Z,101004
2018-05-24T18:53:20.230Z,101005
2018-05-24T18:55:48.587Z,101005
2018-05-24T18:58:17.057Z,101006
2018-05-24T19:00:45.351Z,101006
2018-05-24T19:03:13.437Z,101011
2018-05-24T19:05:41.561Z,101012
2018-05-24T19:08:10.487Z,101017
2018-05-24T19:10:39.584Z,101007
2018-05-24T19:13:08.080Z,101010
2018-05-24T19:15:36.557Z,101009
2018-05-24T19:18:07.461Z,100998
2018-05-24T19:20:35.572Z,100992
2018-05-24T19:23:04.818Z,101005
2018-05-24T19:25:33.200Z,101013
2018-05-24T19:28:01.331Z,101009
2018-05-24T19:30:30.877Z,101007
2018-05-24T19:32:59.134Z,101007
2018-05-24T19:35:30.712Z,101011
2018-05-24T19:38:00.265Z,101007
2018-05-24T19:40:30.531Z,101014
2018-05-24T19:42:59.015Z,101013
2018-05-24T19:45:27.915Z,101029
2018-05-24T19:50:18.928Z,101031
2018-05-24T19:52:50.037Z,101034
2018-05-24T19:55:18.113Z,101034
2018-05-24T19:57:49.831Z,101035
2018-05-24T20:00:18.382Z,101027
2018-05-24T20:02:46.593Z,101031
2018-05-24T20:05:14.972Z,101038
2018-05-24T20:07:43.073Z,101034
2018-05-24T20:10:11.624Z,101037
2018-05-24T20:12:39.876Z,101040
2018-05-24T20:15:10.333Z,101043
2018-05-24T20:17:41.819Z,101047
2018-05-24T20:20:11.055Z,101046
2018-05-24T20:22:39.356Z,101042
2018-05-24T20:25:08.422Z,101052
2018-05-24T20:27:38.163Z,101054
2018-05-24T20:30:06.554Z,101049
2018-05-24T20:32:34.785Z,101051
2018-05-24T20:35:04.937Z,101049
2018-05-24T20:37:33.179Z,101049
2018-05-24T20:40:01.430Z,101044
2018-05-24T20:42:30.472Z,101052
2018-05-24T20:45:00.884Z,101042
2018-05-24T20:47:29.791Z,101044
2018-05-24T20:50:00.711Z,101039
2018-05-24T20:52:28.856Z,101039
2018-05-24T20:54:56.959Z,101047
2018-05-24T20:57:25.137Z,101046
2018-05-24T20:59:53.289Z,101036
2018-05-24T21:02:21.480Z,101026
2018-05-24T21:04:49.816Z,101041
2018-05-24T21:07:18.225Z,101037
2018-05-24T21:09:47.573Z,101037
2018-05-24T21:12:17.049Z,101032
2018-05-24T21:14:45.237Z,101037
2018-05-24T21:17:15.135Z,101033
2018-05-24T21:19:45.384Z,101027
2018-05-24T21:22:15.857Z,101035
2018-05-24T21:24:47.152Z,101036
2018-05-24T21:27:15.554Z,101032
2018-05-24T21:29:43.856Z,101023
2018-05-24T21:32:12.916Z,101028
2018-05-24T21:34:41.037Z,101021
2018-05-24T21:37:09.573Z,101019
2018-05-24T21:39:39.515Z,101031
2018-05-24T21:42:07.917Z,101031
2018-05-24T21:44:40.090Z,101026
2018-05-24T21:47:08.588Z,101033
2018-05-24T21:49:39.835Z,101026
2018-05-24T21:52:09.285Z,101025
2018-05-24T21:54:37.816Z,101025
2018-05-24T21:57:06.754Z,101020
2018-05-24T21:59:35.966Z,101015
2018-05-24T22:02:04.244Z,101014
2018-05-24T22:04:32.335Z,101011
2018-05-24T22:07:02.674Z,101017
2018-05-24T22:09:30.785Z,101022
2018-05-24T22:11:59.916Z,101023
2018-05-24T22:14:28.402Z,101023
2018-05-24T22:16:59.199Z,101033
2018-05-24T22:19:27.740Z,101033
2018-05-24T22:21:55.910Z,101034
2018-05-24T22:24:24.656Z,101041
2018-05-24T22:26:53.987Z,101037
2018-05-24T22:29:25.580Z,101032
2018-05-24T22:31:54.396Z,101036
2018-05-24T22:34:22.514Z,101037
2018-05-24T22:36:51.055Z,101037
2018-05-24T22:39:20.632Z,101031
2018-05-24T22:41:50.830Z,101035
2018-05-24T22:44:21.398Z,101028
2018-05-24T22:46:50.020Z,101029
2018-05-24T22:49:18.996Z,101035
2018-05-24T22:51:47.609Z,101028
2018-05-24T22:54:17.147Z,101030
2018-05-24T22:57:01.388Z,101033
2018-05-24T22:59:29.700Z,101032
2018-05-24T23:01:57.970Z,101039
2018-05-24T23:04:31.490Z,101037
2018-05-24T23:07:00.041Z,101039
2018-05-24T23:09:28.171Z,101031
2018-05-24T23:11:56.341Z,101032
2018-05-24T23:14:25.228Z,101033
2018-05-24T23:16:54.456Z,101029
2018-05-24T23:19:24.536Z,101037
2018-05-24T23:21:53.924Z,101037
2018-05-24T23:24:22.945Z,101032
2018-05-24T23:26:51.837Z,101032
2018-05-24T23:29:20.751Z,101034
2018-05-24T23:31:49.812Z,101030
2018-05-24T23:34:18.721Z,101030
2018-05-24T23:36:46.887Z,101022
2018-05-24T23:39:17.171Z,101020
2018-05-24T23:41:45.285Z,101022
2018-05-24T23:44:18.500Z,101022
2018-05-24T23:46:46.753Z,101015
2018-05-24T23:49:16.542Z,101023
2018-05-24T23:51:44.629Z,101016
2018-05-24T23:54:13.965Z,101023
2018-05-24T23:56:42.229Z,101025
2018-05-24T23:59:11.260Z,101020
